createdAt,value
2023-04-27T00:00:01.636Z,101475.03
2023-04-27T00:02:28.346Z,101478.44
2023-04-27T00:04:56.448Z,101480.66
2023-04-27T00:07:26.183Z,101480.97
2023-04-27T00:09:53.214Z,101479.97
2023-04-27T00:12:20.383Z,101484.63
2023-04-27T00:14:48.978Z,101487.38
2023-04-27T00:17:16.171Z,101488.13
2023-04-27T00:19:42.839Z,101491.03
2023-04-27T00:22:10.219Z,101483.38
2023-04-27T00:24:37.056Z,101480.72
2023-04-27T00:27:03.754Z,101475.97
2023-04-27T00:29:30.760Z,101477.63
2023-04-27T00:31:58.712Z,101469.41
2023-04-27T00:34:26.450Z,101471.91
2023-04-27T00:36:53.442Z,101470.94
2023-04-27T00:39:20.709Z,101465.31
2023-04-27T00:41:47.835Z,101466.31
2023-04-27T00:44:16.290Z,101465.75
2023-04-27T00:46:43.474Z,101463.97
2023-04-27T00:49:12.609Z,101471.22
2023-04-27T00:51:43.398Z,101475.25
2023-04-27T00:54:13.838Z,101474.41
2023-04-27T00:56:41.604Z,101470.78
2023-04-27T00:59:09.721Z,101477.50
2023-04-27T01:01:39.212Z,101484.63
2023-04-27T01:04:07.770Z,101476.94
2023-04-27T01:06:38.122Z,101476.66
2023-04-27T01:09:05.910Z,101475.69
2023-04-27T01:11:34.532Z,101477.06
2023-04-27T01:14:07.450Z,101474.72
2023-04-27T01:16:35.364Z,101477.38
2023-04-27T01:19:02.756Z,101481.16
2023-04-27T01:21:31.014Z,101479.59
2023-04-27T01:23:57.815Z,101482.09
2023-04-27T01:26:27.234Z,101481.84
2023-04-27T01:28:55.483Z,101483.53
2023-04-27T01:31:22.745Z,101485.06
2023-04-27T01:33:49.483Z,101490.22
2023-04-27T01:36:16.664Z,101490.63
2023-04-27T01:38:45.434Z,101495.13
2023-04-27T01:41:13.482Z,101494.97
2023-04-27T01:43:43.778Z,101513.69
2023-04-27T01:46:16.842Z,101511.09
2023-04-27T01:48:43.777Z,101523.00
2023-04-27T01:51:12.581Z,101520.38
2023-04-27T01:53:39.723Z,101527.16
2023-04-27T01:56:07.385Z,101512.00
2023-04-27T01:58:37.385Z,101511.38
2023-04-27T02:01:05.202Z,101501.16
2023-04-27T02:03:33.479Z,101499.75
2023-04-27T02:06:01.015Z,101502.38
2023-04-27T02:08:28.371Z,101515.94
2023-04-27T02:10:56.592Z,101516.53
2023-04-27T02:13:24.209Z,101516.50
2023-04-27T02:15:52.820Z,101519.03
2023-04-27T02:18:20.167Z,101518.59
2023-04-27T02:20:47.498Z,101514.56
2023-04-27T02:23:15.556Z,101517.91
2023-04-27T02:25:46.766Z,101532.44
2023-04-27T02:28:14.354Z,101529.94
2023-04-27T02:30:44.770Z,101534.25
2023-04-27T02:33:13.507Z,101540.09
2023-04-27T02:35:40.837Z,101539.28
2023-04-27T02:38:08.250Z,101538.66
2023-04-27T02:40:35.309Z,101528.19
2023-04-27T02:43:02.262Z,101529.59
2023-04-27T02:45:29.657Z,101528.91
2023-04-27T02:47:56.792Z,101529.63
2023-04-27T02:50:23.488Z,101530.22
2023-04-27T02:52:51.880Z,101530.22
2023-04-27T02:55:18.539Z,101528.53
2023-04-27T02:57:46.564Z,101527.66
2023-04-27T03:00:14.096Z,101534.66
2023-04-27T03:02:42.307Z,101533.53
2023-04-27T03:05:10.064Z,101532.56
2023-04-27T03:07:39.309Z,101526.28
2023-04-27T03:10:07.741Z,101525.16
2023-04-27T03:12:34.458Z,101524.84
2023-04-27T03:15:01.931Z,101526.44
2023-04-27T03:17:31.334Z,101533.84
2023-04-27T03:19:58.602Z,101531.31
2023-04-27T03:22:25.821Z,101543.59
2023-04-27T03:24:52.454Z,101541.31
2023-04-27T03:27:21.904Z,101541.53
2023-04-27T03:29:52.307Z,101536.06
2023-04-27T03:32:19.420Z,101533.16
2023-04-27T03:34:47.721Z,101540.16
2023-04-27T03:37:16.147Z,101530.13
2023-04-27T03:39:45.698Z,101533.84
2023-04-27T03:42:17.780Z,101526.84
2023-04-27T03:44:50.744Z,101538.88
2023-04-27T03:47:19.437Z,101536.34
2023-04-27T03:49:47.977Z,101539.16
2023-04-27T03:52:16.660Z,101536.09
2023-04-27T03:54:50.354Z,101540.56
2023-04-27T03:57:19.115Z,101539.88
2023-04-27T03:59:50.334Z,101541.09
2023-04-27T04:02:18.581Z,101542.34
2023-04-27T04:04:47.520Z,101542.06
2023-04-27T04:07:18.233Z,101545.78
2023-04-27T04:09:46.593Z,101542.59
2023-04-27T04:12:14.293Z,101548.16
2023-04-27T04:14:44.124Z,101549.78
2023-04-27T04:17:12.567Z,101555.66
2023-04-27T04:19:39.414Z,101546.25
2023-04-27T04:22:09.156Z,101554.78
2023-04-27T04:24:40.588Z,101553.97
2023-04-27T04:27:09.937Z,101557.59
2023-04-27T04:29:39.309Z,101559.56
2023-04-27T04:32:07.728Z,101560.41
2023-04-27T04:34:35.336Z,101563.06
2023-04-27T04:37:03.053Z,101557.97
2023-04-27T04:39:33.665Z,101569.44
2023-04-27T04:42:00.958Z,101566.53
2023-04-27T04:44:29.752Z,101574.50
2023-04-27T04:47:00.516Z,101578.84
2023-04-27T04:49:30.963Z,101581.25
2023-04-27T04:51:59.098Z,101578.53
2023-04-27T04:54:28.378Z,101576.28
2023-04-27T04:56:58.746Z,101575.19
2023-04-27T04:59:26.567Z,101587.69
2023-04-27T05:01:57.649Z,101576.63
2023-04-27T05:04:25.000Z,101587.53
2023-04-27T05:06:53.365Z,101585.91
2023-04-27T05:09:23.200Z,101585.19
2023-04-27T05:11:50.296Z,101585.50
2023-04-27T05:14:19.955Z,101583.66
2023-04-27T05:16:49.957Z,101582.94
2023-04-27T05:19:19.401Z,101579.88
2023-04-27T05:21:46.384Z,101586.84
2023-04-27T05:24:15.252Z,101581.13
2023-04-27T05:26:44.080Z,101588.00
2023-04-27T05:29:12.329Z,101587.09
2023-04-27T05:31:48.674Z,101580.34
2023-04-27T05:34:27.386Z,101584.22
2023-04-27T05:36:57.457Z,101582.50
2023-04-27T05:39:31.987Z,101585.34
2023-04-27T05:42:00.429Z,101580.13
2023-04-27T05:44:29.529Z,101592.38
2023-04-27T05:46:56.942Z,101586.97
2023-04-27T05:49:28.665Z,101583.91
2023-04-27T05:51:55.883Z,101595.41
2023-04-27T05:54:22.589Z,101589.25
2023-04-27T05:56:53.023Z,101598.34
2023-04-27T05:59:25.179Z,101596.31
2023-04-27T06:01:53.930Z,101587.94
2023-04-27T06:04:29.376Z,101582.66
2023-04-27T06:06:58.579Z,101590.56
2023-04-27T06:09:30.835Z,101597.91
2023-04-27T06:11:59.653Z,101587.06
2023-04-27T06:14:34.575Z,101597.16
2023-04-27T06:17:07.972Z,101602.47
2023-04-27T06:19:34.491Z,101599.00
2023-04-27T06:22:01.546Z,101604.56
2023-04-27T06:24:31.205Z,101609.84
2023-04-27T06:26:59.618Z,101609.16
2023-04-27T06:29:28.161Z,101607.47
2023-04-27T06:31:55.463Z,101612.06
2023-04-27T06:34:25.023Z,101614.06
2023-04-27T06:36:52.369Z,101620.06
2023-04-27T06:39:21.066Z,101608.56
2023-04-27T06:41:50.350Z,101610.91
2023-04-27T06:44:19.856Z,101614.44
2023-04-27T06:46:55.940Z,101610.25
2023-04-27T06:49:28.571Z,101598.22
2023-04-27T06:51:56.917Z,101591.50
2023-04-27T06:54:27.003Z,101600.28
2023-04-27T06:56:55.552Z,101603.56
2023-04-27T06:59:24.282Z,101593.75
2023-04-27T07:01:53.612Z,101603.34
2023-04-27T07:04:21.087Z,101595.09
2023-04-27T07:06:49.826Z,101605.88
2023-04-27T07:09:29.231Z,101598.00
2023-04-27T07:12:01.420Z,101618.00
2023-04-27T07:14:32.332Z,101618.38
2023-04-27T07:17:00.966Z,101615.53
2023-04-27T07:19:30.854Z,101622.72
2023-04-27T07:22:03.060Z,101631.75
2023-04-27T07:24:36.245Z,101636.50
2023-04-27T07:27:08.270Z,101629.31
2023-04-27T07:29:35.546Z,101631.66
2023-04-27T07:32:06.089Z,101630.94
2023-04-27T07:34:48.920Z,101637.38
2023-04-27T07:37:20.697Z,101633.50
2023-04-27T07:39:49.019Z,101642.13
2023-04-27T07:42:20.602Z,101636.50
2023-04-27T07:44:59.211Z,101637.00
2023-04-27T07:47:25.981Z,101642.03
2023-04-27T07:49:56.688Z,101640.00
2023-04-27T07:52:29.693Z,101650.41
2023-04-27T07:55:02.290Z,101649.00
2023-04-27T07:57:30.294Z,101652.41
2023-04-27T08:00:02.929Z,101645.84
2023-04-27T08:02:31.878Z,101642.59
2023-04-27T08:05:04.349Z,101639.78
2023-04-27T08:07:32.274Z,101642.38
2023-04-27T08:09:59.723Z,101638.25
2023-04-27T08:12:32.813Z,101645.03
2023-04-27T08:15:01.507Z,101651.69
2023-04-27T08:17:32.995Z,101651.53
2023-04-27T08:20:00.332Z,101651.16
2023-04-27T08:22:26.750Z,101640.66
2023-04-27T08:24:53.709Z,101647.78
2023-04-27T08:27:21.941Z,101647.69
2023-04-27T08:29:49.922Z,101646.19
2023-04-27T08:32:18.891Z,101644.00
2023-04-27T08:34:46.911Z,101635.56
2023-04-27T08:37:13.569Z,101636.16
2023-04-27T08:39:47.113Z,101638.03
2023-04-27T08:42:14.411Z,101633.00
2023-04-27T08:44:41.853Z,101628.22
2023-04-27T08:47:09.927Z,101630.34
2023-04-27T08:49:42.332Z,101635.75
2023-04-27T08:52:14.480Z,101625.81
2023-04-27T08:54:42.365Z,101628.00
2023-04-27T08:57:18.329Z,101627.91
2023-04-27T08:59:45.722Z,101628.75
2023-04-27T09:02:22.939Z,101628.34
2023-04-27T09:04:51.518Z,101611.25
2023-04-27T09:07:18.976Z,101623.97
2023-04-27T09:09:46.269Z,101623.44
2023-04-27T09:12:21.153Z,101618.47
2023-04-27T09:15:17.746Z,101625.41
2023-04-27T09:17:47.115Z,101627.50
2023-04-27T09:20:14.348Z,101627.84
2023-04-27T09:22:44.700Z,101634.22
2023-04-27T09:25:11.812Z,101634.97
2023-04-27T09:27:39.446Z,101624.25
2023-04-27T09:30:13.285Z,101619.78
2023-04-27T09:32:40.035Z,101617.69
2023-04-27T09:35:17.740Z,101618.69
2023-04-27T09:37:44.520Z,101615.84
2023-04-27T09:40:11.366Z,101606.41
2023-04-27T09:42:38.317Z,101602.03
2023-04-27T09:45:07.106Z,101598.94
2023-04-27T09:47:34.034Z,101592.06
2023-04-27T09:50:02.101Z,101593.06
2023-04-27T09:52:28.702Z,101585.44
2023-04-27T09:54:57.393Z,101584.94
2023-04-27T09:57:30.299Z,101596.06
2023-04-27T10:00:12.757Z,101593.31
2023-04-27T10:03:02.388Z,101598.88
2023-04-27T10:05:50.555Z,101604.91
2023-04-27T10:08:17.639Z,101603.19
2023-04-27T10:10:50.717Z,101598.88
2023-04-27T10:13:22.144Z,101606.03
2023-04-27T10:15:49.143Z,101608.75
2023-04-27T10:18:25.126Z,101609.09
2023-04-27T10:20:52.707Z,101610.09
2023-04-27T10:23:26.344Z,101617.19
2023-04-27T10:25:53.963Z,101612.31
2023-04-27T10:28:26.357Z,101610.38
2023-04-27T10:30:53.362Z,101626.53
2023-04-27T10:33:21.883Z,101622.63
2023-04-27T10:35:55.947Z,101621.53
